Time;durP1;ratioP1;P1;durP2;ratioP2;P2;SDS_P1;SDS_P2;PMS_P1;PMS_P2;Temp;Humidity;BMP_temperature;BMP_pressure;BME280_temperature;BME280_humidity;BME280_pressure;Samples;Min_cycle;Max_cycle;Signal;HPM_P1;HPM_P2
2022/06/29 00:00:15;;;;;;;3.53;3.13;;;15.80;99.90;;;;;;5055345;28;20979;-69
2022/06/29 00:02:43;;;;;;;3.50;3.30;;;15.80;99.90;;;;;;5055424;28;20194;-69
2022/06/29 00:05:10;;;;;;;3.60;3.30;;;15.70;99.90;;;;;;5055295;28;20973;-69
2022/06/29 00:07:36;;;;;;;3.70;3.47;;;15.70;99.90;;;;;;5054685;28;20406;-76
2022/06/29 00:10:03;;;;;;;4.00;3.70;;;15.60;99.90;;;;;;5055150;28;21018;-69
2022/06/29 00:12:29;;;;;;;3.83;3.53;;;15.60;99.90;;;;;;5054818;28;20401;-76
2022/06/29 00:14:55;;;;;;;3.20;3.00;;;15.60;99.90;;;;;;5055382;28;20472;-70
2022/06/29 00:17:22;;;;;;;3.50;3.00;;;15.60;99.90;;;;;;5054225;28;20186;-69
2022/06/29 00:19:48;;;;;;;3.37;3.17;;;15.60;99.90;;;;;;5055082;28;20523;-69
2022/06/29 00:22:14;;;;;;;5.33;3.50;;;15.60;99.90;;;;;;5055032;28;20535;-75
2022/06/29 00:24:39;;;;;;;6.97;5.53;;;15.60;99.90;;;;;;5053671;28;20675;-69
2022/06/29 00:27:05;;;;;;;4.67;4.10;;;15.60;99.90;;;;;;5054037;28;20167;-69
2022/06/29 00:29:31;;;;;;;4.30;3.93;;;15.60;99.90;;;;;;5054940;28;20544;-68
2022/06/29 00:31:57;;;;;;;5.53;4.10;;;15.50;99.90;;;;;;5054294;28;20520;-69
2022/06/29 00:34:22;;;;;;;5.53;4.10;;;15.50;99.90;;;;;;5054774;28;20171;-69
2022/06/29 00:36:48;;;;;;;3.27;3.07;;;15.60;99.90;;;;;;5053947;28;21000;-70
2022/06/29 00:39:14;;;;;;;3.40;3.20;;;15.50;99.90;;;;;;5054629;28;20221;-75
2022/06/29 00:41:45;;;;;;;5.40;3.40;;;15.50;99.90;;;;;;5054875;28;20171;-69
2022/06/29 00:44:19;;;;;;;3.00;2.80;;;15.60;99.90;;;;;;5054607;28;20612;-75
2022/06/29 00:46:57;;;;;;;2.93;2.73;;;15.50;99.90;;;;;;5053709;28;20409;-76
2022/06/29 00:49:25;;;;;;;3.23;3.03;;;15.50;99.90;;;;;;5054518;28;20421;-76
2022/06/29 00:52:08;;;;;;;3.27;3.07;;;15.50;99.90;;;;;;5053884;28;20385;-76
2022/06/29 00:54:46;;;;;;;2.90;2.70;;;15.50;99.90;;;;;;5054354;28;20451;-69
2022/06/29 00:57:21;;;;;;;2.73;2.47;;;15.50;99.90;;;;;;5053500;28;20417;-69
2022/06/29 00:59:55;;;;;;;3.50;3.30;;;15.40;99.90;;;;;;5054378;28;20459;-69
2022/06/29 01:02:23;;;;;;;3.77;3.00;;;15.40;99.90;;;;;;5054342;28;20485;-69
2022/06/29 01:04:50;;;;;;;3.40;2.77;;;15.30;99.90;;;;;;5054198;28;20463;-76
2022/06/29 01:07:19;;;;;;;3.50;3.30;;;15.30;99.90;;;;;;5053317;28;20736;-75
2022/06/29 01:09:45;;;;;;;3.30;3.00;;;15.30;99.90;;;;;;5051289;28;20461;-69
2022/06/29 01:12:11;;;;;;;2.73;2.60;;;15.20;99.90;;;;;;5054201;28;20838;-69
2022/06/29 01:14:41;;;;;;;3.23;3.00;;;15.20;99.90;;;;;;5053798;28;20492;-76
2022/06/29 01:17:06;;;;;;;5.00;3.43;;;15.20;99.90;;;;;;5053081;28;20432;-75
2022/06/29 01:19:32;;;;;;;3.40;3.20;;;15.20;99.90;;;;;;5054081;28;20480;-76
2022/06/29 01:22:10;;;;;;;3.47;3.17;;;15.10;99.90;;;;;;5053829;28;20213;-68
2022/06/29 01:24:36;;;;;;;3.70;3.40;;;15.10;99.90;;;;;;5053746;28;20217;-68
2022/06/29 01:27:03;;;;;;;3.87;3.20;;;15.10;99.90;;;;;;5052472;28;20402;-69
2022/06/29 01:29:29;;;;;;;3.10;2.90;;;15.00;99.90;;;;;;5053555;28;20521;-75
2022/06/29 01:31:56;;;;;;;2.77;2.57;;;15.00;99.90;;;;;;5053771;28;20402;-69
2022/06/29 01:34:23;;;;;;;3.57;3.27;;;15.10;99.90;;;;;;5054072;28;20413;-75
2022/06/29 01:36:49;;;;;;;3.70;3.40;;;15.00;99.90;;;;;;5052763;28;21288;-75
2022/06/29 01:39:14;;;;;;;4.27;3.87;;;15.00;99.90;;;;;;5053583;28;20429;-69
2022/06/29 01:41:40;;;;;;;3.00;2.90;;;14.90;99.90;;;;;;5053587;28;20203;-69
2022/06/29 01:44:06;;;;;;;6.47;3.80;;;14.90;99.90;;;;;;5052846;28;20656;-69
2022/06/29 01:46:31;;;;;;;3.67;3.47;;;14.90;99.90;;;;;;5052525;28;20624;-68
2022/06/29 01:48:57;;;;;;;6.07;4.13;;;14.90;99.90;;;;;;5053357;28;20591;-75
2022/06/29 01:51:23;;;;;;;3.60;3.20;;;14.90;99.90;;;;;;5053456;28;20167;-69
2022/06/29 01:53:48;;;;;;;3.20;3.00;;;14.90;99.90;;;;;;5053379;28;20639;-68
2022/06/29 01:56:14;;;;;;;2.97;2.77;;;14.90;99.90;;;;;;5053169;28;20175;-69
2022/06/29 01:58:40;;;;;;;3.93;3.53;;;14.90;99.90;;;;;;5052454;28;20320;-75
2022/06/29 02:01:06;;;;;;;3.87;3.47;;;14.90;99.90;;;;;;5053196;28;20440;-74
2022/06/29 02:03:31;;;;;;;4.00;3.80;;;14.90;99.90;;;;;;5052875;28;20525;-73
2022/06/29 02:05:57;;;;;;;3.63;3.43;;;15.00;99.90;;;;;;5052933;28;20183;-69
2022/06/29 02:08:23;;;;;;;4.10;3.90;;;14.90;99.90;;;;;;5052218;28;20202;-69
2022/06/29 02:10:49;;;;;;;3.70;3.50;;;14.90;99.90;;;;;;5053004;28;20409;-75
2022/06/29 02:13:15;;;;;;;3.27;3.07;;;14.90;99.90;;;;;;5053088;28;20167;-76
2022/06/29 02:15:40;;;;;;;3.63;3.10;;;14.90;99.90;;;;;;5053217;28;20255;-76
2022/06/29 02:18:06;;;;;;;4.60;4.30;;;14.90;99.90;;;;;;5052018;28;20225;-68
2022/06/29 02:20:32;;;;;;;3.47;3.17;;;14.80;99.90;;;;;;5052551;28;20167;-75
2022/06/29 02:22:57;;;;;;;3.50;3.27;;;14.80;99.90;;;;;;5052504;28;20170;-75
2022/06/29 02:25:23;;;;;;;3.10;2.90;;;14.80;99.90;;;;;;5052842;28;20210;-76
2022/06/29 02:27:49;;;;;;;3.47;3.13;;;14.80;99.90;;;;;;5052045;28;20166;-75
2022/06/29 02:30:16;;;;;;;3.57;3.37;;;14.80;99.90;;;;;;5052945;28;20191;-69
2022/06/29 02:35:28;;;;;;;3.10;2.90;;;14.80;99.90;;;;;;5052833;28;20458;-69
2022/06/29 02:37:55;;;;;;;3.70;3.40;;;14.70;99.90;;;;;;5051941;28;20420;-69
2022/06/29 02:40:21;;;;;;;5.63;3.20;;;14.70;99.90;;;;;;5052488;28;20425;-69
2022/06/29 02:42:46;;;;;;;5.87;3.80;;;14.60;99.90;;;;;;5051259;28;21035;-68
2022/06/29 02:45:12;;;;;;;3.30;3.10;;;14.60;99.90;;;;;;5052659;28;20544;-70
2022/06/29 02:47:38;;;;;;;5.97;3.53;;;14.60;99.90;;;;;;5051949;28;20183;-76
2022/06/29 02:50:04;;;;;;;2.93;2.73;;;14.60;99.90;;;;;;5052648;28;20421;-69
2022/06/29 02:52:30;;;;;;;4.50;3.93;;;14.60;99.90;;;;;;5052645;28;20182;-68
2022/06/29 02:54:55;;;;;;;3.60;3.40;;;14.60;99.90;;;;;;5052838;28;20488;-76
2022/06/29 02:57:21;;;;;;;3.77;3.50;;;14.60;99.90;;;;;;5051720;28;20186;-75
2022/06/29 02:59:47;;;;;;;3.70;3.40;;;14.60;99.90;;;;;;5051979;28;20648;-69
2022/06/29 03:02:13;;;;;;;3.80;3.60;;;14.50;99.90;;;;;;5052739;28;20171;-68
2022/06/29 03:04:38;;;;;;;3.93;3.63;;;14.50;99.90;;;;;;5051251;28;20280;-69
2022/06/29 03:07:04;;;;;;;4.13;3.83;;;14.50;99.90;;;;;;5051658;28;20213;-75
2022/06/29 03:09:30;;;;;;;3.50;3.30;;;14.50;99.90;;;;;;5052385;28;20278;-68
2022/06/29 03:11:55;;;;;;;3.90;3.70;;;14.50;99.90;;;;;;5052496;28;20174;-75
2022/06/29 03:14:21;;;;;;;3.23;2.90;;;14.50;1.00;;;;;;5052599;28;20250;-76
2022/06/29 03:16:47;;;;;;;3.70;3.40;;;14.50;1.00;;;;;;5051614;28;20266;-75
2022/06/29 03:19:12;;;;;;;3.83;3.53;;;14.50;1.00;;;;;;5051761;28;20211;-69
2022/06/29 03:21:38;;;;;;;3.90;3.60;;;14.50;1.00;;;;;;5052331;28;20627;-68
2022/06/29 03:24:04;;;;;;;3.80;3.50;;;14.50;1.00;;;;;;5052402;28;20203;-69
2022/06/29 03:26:31;;;;;;;3.90;3.23;;;14.50;1.00;;;;;;5051888;28;20175;-70
2022/06/29 03:28:57;;;;;;;3.70;3.50;;;14.50;1.00;;;;;;5052381;28;20501;-70
2022/06/29 03:31:23;;;;;;;3.70;3.40;;;14.50;1.00;;;;;;5052342;28;20480;-75
2022/06/29 03:33:49;;;;;;;4.03;3.73;;;14.50;1.00;;;;;;5053745;28;20949;-69
2022/06/29 03:36:15;;;;;;;3.87;3.60;;;14.50;1.00;;;;;;5055862;28;20763;-75
2022/06/29 03:38:41;;;;;;;3.50;3.30;;;14.50;1.00;;;;;;5054447;28;20483;-76
2022/06/29 03:41:06;;;;;;;3.70;3.40;;;14.50;1.00;;;;;;5055902;28;20252;-75
2022/06/29 03:43:32;;;;;;;3.83;3.60;;;14.50;1.00;;;;;;5055722;28;20456;-75
2022/06/29 03:45:58;;;;;;;3.17;2.97;;;14.50;1.00;;;;;;5055761;28;20174;-76
2022/06/29 03:48:24;;;;;;;3.37;3.17;;;14.60;1.00;;;;;;5054807;28;20551;-72
2022/06/29 03:50:49;;;;;;;4.47;4.10;;;14.60;1.00;;;;;;5055622;28;20188;-76
2022/06/29 03:53:15;;;;;;;3.30;3.10;;;14.60;1.00;;;;;;5054652;28;20529;-68
2022/06/29 03:55:41;;;;;;;3.23;2.97;;;14.60;1.00;;;;;;5055486;28;20162;-75
2022/06/29 03:58:07;;;;;;;3.77;3.47;;;14.70;1.00;;;;;;5053965;28;20563;-69
2022/06/29 04:00:33;;;;;;;3.60;3.30;;;14.70;1.00;;;;;;5055510;28;20409;-69
2022/06/29 04:02:58;;;;;;;3.60;3.30;;;14.70;1.00;;;;;;5055607;28;20221;-76
2022/06/29 04:05:24;;;;;;;3.63;3.33;;;14.70;1.00;;;;;;5055343;28;20218;-69
2022/06/29 04:07:50;;;;;;;3.50;3.30;;;14.80;1.00;;;;;;5054437;28;20186;-77
2022/06/29 04:10:16;;;;;;;3.20;3.00;;;14.80;1.00;;;;;;5055270;28;20596;-69
2022/06/29 04:12:41;;;;;;;4.03;3.73;;;14.90;1.00;;;;;;5055254;28;20171;-76
2022/06/29 04:15:08;;;;;;;4.13;3.17;;;14.90;1.00;;;;;;5053303;28;20181;-69
2022/06/29 04:17:34;;;;;;;3.40;3.10;;;15.00;1.00;;;;;;5054443;28;20183;-75
2022/06/29 04:20:00;;;;;;;3.27;3.07;;;15.00;1.00;;;;;;5054921;28;20429;-69
2022/06/29 04:22:26;;;;;;;4.07;3.40;;;15.10;1.00;;;;;;5055080;28;20467;-75
2022/06/29 04:24:52;;;;;;;3.10;2.90;;;15.20;1.00;;;;;;5055210;28;20941;-75
2022/06/29 04:27:18;;;;;;;3.63;3.33;;;15.20;1.00;;;;;;5054134;28;20196;-69
2022/06/29 04:29:43;;;;;;;3.83;2.30;;;15.30;1.00;;;;;;5054938;28;20186;-70
2022/06/29 04:32:10;;;;;;;3.03;2.83;;;15.40;1.00;;;;;;5054206;28;20456;-71
2022/06/29 04:34:36;;;;;;;3.43;3.23;;;15.50;1.00;;;;;;5054816;28;20171;-75
2022/06/29 04:37:02;;;;;;;8.03;3.23;;;15.60;1.00;;;;;;5053990;28;20404;-74
2022/06/29 04:39:28;;;;;;;3.90;2.93;;;15.60;1.00;;;;;;5054704;28;20528;-76
2022/06/29 04:41:54;;;;;;;3.37;3.17;;;15.80;1.00;;;;;;5054689;28;20417;-75
2022/06/29 04:44:20;;;;;;;2.83;2.60;;;15.80;1.00;;;;;;5054412;28;20191;-69
2022/06/29 04:46:46;;;;;;;2.70;2.50;;;15.90;1.00;;;;;;5053701;28;20416;-76
2022/06/29 04:49:11;;;;;;;2.97;2.77;;;16.00;1.00;;;;;;5054405;28;20205;-70
2022/06/29 04:51:37;;;;;;;2.57;2.37;;;16.10;1.00;;;;;;5054033;28;20175;-69
2022/06/29 04:54:04;;;;;;;2.67;2.50;;;16.10;1.00;;;;;;5054361;28;20170;-75
2022/06/29 04:56:32;;;;;;;4.47;2.93;;;16.20;1.00;;;;;;5052135;28;20190;-73
2022/06/29 04:58:59;;;;;;;2.57;2.37;;;16.20;1.00;;;;;;5053142;28;20437;-76
2022/06/29 05:01:27;;;;;;;3.07;2.83;;;16.30;1.00;;;;;;5054335;28;20440;-69
2022/06/29 05:03:54;;;;;;;2.90;2.70;;;16.40;1.00;;;;;;5054090;28;20783;-75
2022/06/29 05:06:20;;;;;;;4.67;4.20;;;16.50;1.00;;;;;;5053975;28;20425;-68
2022/06/29 05:08:48;;;;;;;2.43;2.23;;;16.60;1.00;;;;;;5052903;28;20898;-74
2022/06/29 05:11:14;;;;;;;2.67;2.47;;;16.70;1.00;;;;;;5054104;28;20489;-75
2022/06/29 05:13:42;;;;;;;5.63;2.70;;;16.80;1.00;;;;;;5054116;28;20405;-75
2022/06/29 05:16:09;;;;;;;2.50;2.37;;;16.80;1.00;;;;;;5053976;28;20415;-74
2022/06/29 05:18:35;;;;;;;3.07;2.80;;;16.90;1.00;;;;;;5053349;28;20452;-74
2022/06/29 05:21:01;;;;;;;3.13;2.83;;;17.00;1.00;;;;;;5054015;28;20394;-75
2022/06/29 05:23:30;;;;;;;3.93;3.43;;;17.10;1.00;;;;;;5053864;28;20451;-76
2022/06/29 05:25:56;;;;;;;2.50;2.30;;;17.20;1.00;;;;;;5053751;28;20827;-68
2022/06/29 05:28:22;;;;;;;3.93;2.90;;;17.30;1.00;;;;;;5052603;28;20508;-75
2022/06/29 05:30:48;;;;;;;4.37;3.00;;;17.30;1.00;;;;;;5052905;28;20513;-76
2022/06/29 05:33:14;;;;;;;6.13;2.90;;;17.30;1.00;;;;;;5053642;28;20163;-68
2022/06/29 05:35:39;;;;;;;5.23;2.60;;;17.30;1.00;;;;;;5053815;28;20810;-76
2022/06/29 05:38:05;;;;;;;3.30;2.70;;;17.40;1.00;;;;;;5052601;28;20166;-76
2022/06/29 05:40:31;;;;;;;3.07;2.87;;;17.40;1.00;;;;;;5053385;28;20642;-69
2022/06/29 05:43:00;;;;;;;2.80;2.60;;;17.40;1.00;;;;;;5053631;28;20183;-68
2022/06/29 05:45:27;;;;;;;4.13;2.60;;;17.40;1.00;;;;;;5052884;28;20856;-68
2022/06/29 05:47:53;;;;;;;3.33;2.30;;;17.50;99.90;;;;;;5052614;28;20420;-76
2022/06/29 05:50:21;;;;;;;3.73;2.70;;;17.50;99.90;;;;;;5052487;28;20425;-69
2022/06/29 05:52:46;;;;;;;3.07;2.87;;;17.50;99.90;;;;;;5053260;28;20410;-70
2022/06/29 05:55:12;;;;;;;3.23;2.90;;;17.50;99.90;;;;;;5053290;28;20405;-75
2022/06/29 05:57:38;;;;;;;2.90;2.70;;;17.60;99.90;;;;;;5052001;28;20422;-69
2022/06/29 06:00:05;;;;;;;2.50;2.27;;;17.70;99.90;;;;;;5053196;28;20233;-69
2022/06/29 06:02:31;;;;;;;2.53;2.43;;;17.70;99.90;;;;;;5053166;28;20209;-69
2022/06/29 06:04:56;;;;;;;2.57;2.37;;;17.80;99.90;;;;;;5052562;28;20849;-75
2022/06/29 06:07:22;;;;;;;3.27;3.00;;;17.90;99.90;;;;;;5052184;28;20173;-75
2022/06/29 06:09:48;;;;;;;4.10;3.00;;;18.00;99.90;;;;;;5052992;28;20214;-75
2022/06/29 06:12:13;;;;;;;5.60;2.67;;;18.10;99.90;;;;;;5053153;28;20505;-69
2022/06/29 06:14:39;;;;;;;4.17;2.33;;;18.10;99.90;;;;;;5052952;28;20162;-69
2022/06/29 06:17:05;;;;;;;3.40;2.43;;;18.30;99.90;;;;;;5052042;28;20220;-75
2022/06/29 06:19:31;;;;;;;5.00;2.50;;;18.30;99.90;;;;;;5053045;28;20425;-76
2022/06/29 06:21:56;;;;;;;2.70;2.50;;;18.40;99.90;;;;;;5052308;28;20179;-69
2022/06/29 06:24:22;;;;;;;3.10;2.60;;;18.40;99.90;;;;;;5052885;28;20297;-75
2022/06/29 06:26:48;;;;;;;2.90;2.50;;;18.50;99.90;;;;;;5052034;28;20209;-69
2022/06/29 06:29:13;;;;;;;2.60;2.40;;;18.60;99.90;;;;;;5052729;28;20667;-69
2022/06/29 06:31:39;;;;;;;3.00;2.70;;;18.70;99.90;;;;;;5052935;28;20167;-75
2022/06/29 06:34:05;;;;;;;4.30;3.00;;;18.80;99.90;;;;;;5052926;28;20254;-69
2022/06/29 06:36:31;;;;;;;2.00;1.90;;;18.90;99.90;;;;;;5051975;28;20182;-69
2022/06/29 06:38:56;;;;;;;3.23;2.30;;;19.00;99.90;;;;;;5052851;28;20202;-69
2022/06/29 06:41:22;;;;;;;5.50;2.30;;;19.10;99.90;;;;;;5052227;28;20583;-75
2022/06/29 06:43:53;;;;;;;4.40;2.60;;;19.10;99.90;;;;;;5052648;28;20198;-70
2022/06/29 06:46:19;;;;;;;2.53;1.60;;;19.20;99.90;;;;;;5052675;28;20642;-69
2022/06/29 06:48:45;;;;;;;2.30;1.83;;;19.30;99.90;;;;;;5052060;28;20428;-75
2022/06/29 06:51:14;;;;;;;2.13;1.93;;;19.30;99.90;;;;;;5052656;28;20485;-69
2022/06/29 06:53:40;;;;;;;1.83;1.73;;;19.40;99.90;;;;;;5052822;28;20417;-69
2022/06/29 06:56:09;;;;;;;2.60;2.40;;;19.50;99.90;;;;;;5052618;28;20472;-69
2022/06/29 06:58:38;;;;;;;2.90;2.10;;;19.60;99.90;;;;;;5051145;28;20199;-69
2022/06/29 07:01:05;;;;;;;2.30;1.87;;;19.70;99.90;;;;;;5051390;28;20409;-70
2022/06/29 07:03:31;;;;;;;1.70;1.60;;;19.80;99.90;;;;;;5052556;28;20421;-75
2022/06/29 07:06:00;;;;;;;2.80;2.17;;;19.90;99.90;;;;;;5052449;28;20408;-68
2022/06/29 07:08:27;;;;;;;2.47;1.80;;;20.00;99.90;;;;;;5052732;28;20190;-76
2022/06/29 07:10:53;;;;;;;2.30;2.13;;;20.00;99.90;;;;;;5056899;28;20454;-76
2022/06/29 07:13:19;;;;;;;2.13;1.73;;;20.10;99.90;;;;;;5056346;28;20393;-75
2022/06/29 07:15:44;;;;;;;2.33;2.13;;;20.30;99.90;;;;;;5055787;28;20199;-70
2022/06/29 07:18:10;;;;;;;3.07;2.20;;;20.40;99.90;;;;;;5055330;28;20186;-68
2022/06/29 07:20:36;;;;;;;2.33;1.93;;;20.50;99.90;;;;;;5056308;28;20166;-76
2022/06/29 07:23:01;;;;;;;5.10;2.50;;;20.60;99.90;;;;;;5056293;28;20220;-70
2022/06/29 07:25:27;;;;;;;5.73;2.20;;;20.70;99.90;;;;;;5056039;28;20201;-69
2022/06/29 07:27:53;;;;;;;2.47;2.20;;;20.70;99.90;;;;;;5055243;28;20218;-76
2022/06/29 07:30:18;;;;;;;2.80;2.03;;;20.80;99.90;;;;;;5056066;28;20682;-76
2022/06/29 07:32:44;;;;;;;5.77;2.37;;;20.90;99.90;;;;;;5056041;28;20174;-76
2022/06/29 07:35:10;;;;;;;4.03;3.10;;;21.00;99.90;;;;;;5054161;28;20171;-75
2022/06/29 07:37:35;;;;;;;2.50;2.30;;;21.10;99.90;;;;;;5055099;28;20624;-74
2022/06/29 07:40:01;;;;;;;3.10;2.10;;;21.20;99.90;;;;;;5055794;28;20280;-71
2022/06/29 07:42:27;;;;;;;3.70;1.70;;;21.20;99.90;;;;;;5055977;28;20167;-74
2022/06/29 07:44:52;;;;;;;1.90;1.80;;;21.30;99.90;;;;;;5055931;28;20206;-71
2022/06/29 07:47:18;;;;;;;2.70;1.70;;;21.30;99.90;;;;;;5054893;28;20228;-75
2022/06/29 07:49:43;;;;;;;3.47;1.67;;;21.30;99.90;;;;;;5055521;28;20256;-74
2022/06/29 07:52:09;;;;;;;3.20;1.57;;;21.40;99.90;;;;;;5055752;28;20245;-75
2022/06/29 07:54:35;;;;;;;2.23;1.90;;;21.50;99.90;;;;;;5055094;28;20684;-75
2022/06/29 07:57:00;;;;;;;1.83;1.63;;;21.50;99.90;;;;;;5054631;28;20217;-71
2022/06/29 07:59:26;;;;;;;2.33;1.70;;;21.60;99.90;;;;;;5055543;28;20222;-70
2022/06/29 08:01:52;;;;;;;2.10;1.60;;;21.60;99.90;;;;;;5055433;28;20198;-74
2022/06/29 08:04:17;;;;;;;2.83;1.67;;;21.70;99.90;;;;;;5055574;28;20202;-71
2022/06/29 08:06:43;;;;;;;2.17;1.70;;;21.80;99.90;;;;;;5054389;28;20256;-75
2022/06/29 08:09:09;;;;;;;2.40;2.20;;;21.90;99.90;;;;;;5055158;28;20194;-75
2022/06/29 08:11:35;;;;;;;1.80;1.60;;;22.00;99.90;;;;;;5055330;28;20301;-74
2022/06/29 08:14:00;;;;;;;1.70;1.60;;;22.10;99.90;;;;;;5054738;28;20185;-74
2022/06/29 08:16:26;;;;;;;2.10;1.90;;;22.20;99.90;;;;;;5055062;28;20178;-74
2022/06/29 08:18:52;;;;;;;1.90;1.70;;;22.20;99.90;;;;;;5053944;28;20203;-74
2022/06/29 08:21:17;;;;;;;2.20;2.00;;;22.30;99.90;;;;;;5055218;28;20321;-74
2022/06/29 08:23:43;;;;;;;1.53;1.43;;;22.40;99.90;;;;;;5054968;28;20564;-74
2022/06/29 08:26:09;;;;;;;1.97;1.87;;;22.50;99.90;;;;;;5054955;28;20202;-71
2022/06/29 08:28:34;;;;;;;4.80;1.90;;;22.60;99.90;;;;;;5054155;28;20187;-70
2022/06/29 08:31:00;;;;;;;2.17;2.00;;;22.80;99.90;;;;;;5054979;28;20171;-75
2022/06/29 08:33:26;;;;;;;1.87;1.77;;;23.00;99.90;;;;;;5054332;28;20167;-71
2022/06/29 08:35:51;;;;;;;5.63;1.90;;;23.10;99.90;;;;;;5054973;28;20163;-75
2022/06/29 08:38:18;;;;;;;1.80;1.70;;;23.20;99.90;;;;;;5053781;28;20249;-71
2022/06/29 08:40:46;;;;;;;1.90;1.80;;;23.30;99.90;;;;;;5054739;28;20624;-74
2022/06/29 08:43:13;;;;;;;2.83;2.30;;;23.40;99.90;;;;;;5054779;28;20401;-71
2022/06/29 08:45:45;;;;;;;2.00;1.73;;;23.50;99.90;;;;;;5053328;28;20834;-74
2022/06/29 08:48:12;;;;;;;2.67;1.70;;;23.60;97.00;;;;;;5053578;28;20398;-74
2022/06/29 08:50:40;;;;;;;1.77;1.60;;;23.60;97.00;;;;;;5054028;28;20924;-75
2022/06/29 08:53:08;;;;;;;2.57;1.50;;;23.60;97.00;;;;;;5054634;28;20854;-75
2022/06/29 08:55:41;;;;;;;1.80;1.70;;;23.70;97.10;;;;;;5054568;28;20400;-74
2022/06/29 08:58:09;;;;;;;3.73;1.47;;;23.80;97.20;;;;;;5053407;28;20412;-75
2022/06/29 09:00:36;;;;;;;4.07;2.20;;;23.80;97.10;;;;;;5054463;28;20402;-75
2022/06/29 09:03:04;;;;;;;2.10;1.67;;;23.90;97.20;;;;;;5054327;28;20409;-72
2022/06/29 09:05:30;;;;;;;1.90;1.70;;;24.10;97.20;;;;;;5054161;28;20499;-72
2022/06/29 09:07:55;;;;;;;1.57;1.47;;;24.20;97.30;;;;;;5053504;28;20404;-74
2022/06/29 09:10:23;;;;;;;3.67;1.60;;;24.30;90.30;;;;;;5053425;28;20418;-75
2022/06/29 09:12:52;;;;;;;2.37;1.90;;;24.40;89.80;;;;;;5054288;28;20558;-71
2022/06/29 09:15:30;;;;;;;2.00;1.80;;;24.50;90.40;;;;;;5054296;28;20441;-72
2022/06/29 09:17:55;;;;;;;1.93;1.50;;;24.70;88.10;;;;;;5053256;28;20425;-75
2022/06/29 09:20:21;;;;;;;3.23;1.90;;;24.90;76.20;;;;;;5053789;28;20421;-74
2022/06/29 09:22:56;;;;;;;4.17;1.50;;;24.90;82.60;;;;;;5053919;28;20175;-73
2022/06/29 09:25:26;;;;;;;2.47;1.57;;;25.00;68.40;;;;;;5053765;28;20244;-74
2022/06/29 09:27:55;;;;;;;1.70;1.33;;;25.00;69.40;;;;;;5052617;28;20432;-75
2022/06/29 09:30:35;;;;;;;2.67;1.70;;;25.10;64.60;;;;;;5053217;28;20443;-72
2022/06/29 09:33:06;;;;;;;2.50;1.37;;;25.30;65.50;;;;;;5053550;28;20413;-74
2022/06/29 09:35:33;;;;;;;1.87;1.50;;;25.40;63.10;;;;;;5053702;28;20413;-71
2022/06/29 09:38:22;;;;;;;4.00;1.53;;;25.50;64.60;;;;;;5052879;28;20405;-72
2022/06/29 09:41:15;;;;;;;1.70;1.60;;;25.70;55.90;;;;;;5053432;28;20416;-72
2022/06/29 09:43:45;;;;;;;1.73;1.57;;;25.80;50.20;;;;;;5052902;28;20782;-71
2022/06/29 09:46:13;;;;;;;1.60;1.50;;;25.80;49.20;;;;;;5053468;28;20431;-74
2022/06/29 09:48:40;;;;;;;1.83;1.10;;;26.00;52.00;;;;;;5052772;28;20433;-74
2022/06/29 09:54:01;;;;;;;2.70;1.70;;;26.00;43.10;;;;;;5053593;28;20471;-71
2022/06/29 09:56:30;;;;;;;1.83;1.53;;;25.90;38.90;;;;;;5053103;28;20409;-72
2022/06/29 09:59:00;;;;;;;4.50;2.80;;;25.90;34.50;;;;;;5053266;28;20566;-71
2022/06/29 10:04:13;;;;;;;1.63;1.53;;;26.10;32.80;;;;;;5053260;28;20444;-74
2022/06/29 10:06:39;;;;;;;1.80;1.50;;;26.40;36.10;;;;;;5052429;28;20413;-72
2022/06/29 10:09:05;;;;;;;3.13;1.30;;;26.80;43.00;;;;;;5053063;28;20471;-70
2022/06/29 10:14:44;;;;;;;1.50;1.40;;;27.30;35.20;;;;;;5052874;28;20466;-72
2022/06/29 10:17:31;;;;;;;1.93;1.73;;;27.70;34.00;;;;;;5051914;28;20789;-74
2022/06/29 10:20:22;;;;;;;2.60;1.57;;;27.70;27.80;;;;;;5052813;28;20198;-75
2022/06/29 10:22:48;;;;;;;1.70;1.60;;;27.50;25.50;;;;;;5052977;28;20905;-74
2022/06/29 10:25:14;;;;;;;2.30;1.60;;;27.20;21.60;;;;;;5052949;28;20459;-72
2022/06/29 10:28:10;;;;;;;2.93;2.30;;;27.00;24.90;;;;;;5052117;28;20842;-76
2022/06/29 10:30:37;;;;;;;3.87;1.80;;;26.60;18.20;;;;;;5053044;28;20393;-72
2022/06/29 10:33:34;;;;;;;2.47;1.73;;;26.40;17.50;;;;;;5052612;28;20812;-72
2022/06/29 10:36:06;;;;;;;1.60;1.50;;;26.40;20.50;;;;;;5052782;28;20405;-75
2022/06/29 10:38:55;;;;;;;1.50;1.23;;;26.60;22.80;;;;;;5051954;28;20505;-75
2022/06/29 10:44:06;;;;;;;3.00;2.10;;;26.70;23.00;;;;;;5056751;28;20452;-72
2022/06/29 10:46:55;;;;;;;1.43;1.33;;;26.70;17.40;;;;;;5056104;28;20405;-72
2022/06/29 10:49:21;;;;;;;1.77;1.67;;;26.70;20.20;;;;;;5056775;28;20462;-75
2022/06/29 10:51:50;;;;;;;3.07;1.57;;;26.80;16.60;;;;;;5056856;28;20447;-75
2022/06/29 10:54:29;;;;;;;6.70;1.70;;;26.90;18.70;;;;;;5056177;28;20607;-70
2022/06/29 10:56:56;;;;;;;2.50;1.67;;;27.20;25.90;;;;;;5055893;28;20909;-75
2022/06/29 10:59:35;;;;;;;1.63;1.53;;;27.40;22.10;;;;;;5056558;28;20425;-72
2022/06/29 11:02:13;;;;;;;1.90;1.47;;;27.60;19.20;;;;;;5056748;28;20501;-71
2022/06/29 11:04:41;;;;;;;5.43;2.27;;;27.80;19.30;;;;;;5056627;28;20817;-72
2022/06/29 11:12:57;;;;;;;3.30;1.80;;;27.80;17.50;;;;;;5055949;28;20400;-72
2022/06/29 11:15:39;;;;;;;2.13;1.43;;;27.80;17.70;;;;;;5056340;28;20482;-74
2022/06/29 11:18:15;;;;;;;2.30;2.10;;;28.10;14.10;;;;;;5055319;28;20455;-72
2022/06/29 11:20:43;;;;;;;1.90;1.60;;;28.60;19.30;;;;;;5056275;28;20762;-75
2022/06/29 11:23:10;;;;;;;2.30;1.63;;;29.10;12.10;;;;;;5056314;28;20416;-75
2022/06/29 11:25:37;;;;;;;9.57;1.63;;;29.50;9.30;;;;;;5056125;28;20467;-75
2022/06/29 11:28:04;;;;;;;2.33;1.90;;;29.90;9.00;;;;;;5055300;28;20462;-73
2022/06/29 11:30:30;;;;;;;1.60;1.50;;;30.10;12.00;;;;;;5056191;28;20401;-75
2022/06/29 11:32:56;;;;;;;2.50;1.70;;;30.50;14.10;;;;;;5055523;28;20916;-73
2022/06/29 11:35:24;;;;;;;2.53;1.60;;;30.90;8.80;;;;;;5056005;28;20409;-74
2022/06/29 11:38:01;;;;;;;2.13;1.97;;;31.10;8.10;;;;;;5055458;28;20405;-75
2022/06/29 11:40:37;;;;;;;2.80;2.60;;;31.50;9.20;;;;;;5055982;28;20447;-74
2022/06/29 11:43:08;;;;;;;1.50;1.27;;;31.80;2.20;;;;;;5055877;28;20404;-72
2022/06/29 11:45:39;;;;;;;3.53;1.67;;;32.00;1.00;;;;;;5055713;28;20945;-74
2022/06/29 11:48:15;;;;;;;1.83;1.73;;;31.70;1.00;;;;;;5054870;28;20398;-74
2022/06/29 11:50:44;;;;;;;1.50;1.40;;;31.40;1.00;;;;;;5055739;28;20397;-74
2022/06/29 11:53:10;;;;;;;1.83;1.70;;;31.30;1.00;;;;;;5055060;28;20459;-74
2022/06/29 11:55:45;;;;;;;3.70;1.53;;;31.50;1.00;;;;;;5054719;28;20459;-74
2022/06/29 11:58:13;;;;;;;4.70;1.70;;;31.10;1.00;;;;;;5054560;28;20454;-72
2022/06/29 12:00:39;;;;;;;1.57;1.47;;;30.90;1.00;;;;;;5055748;28;20394;-72
2022/06/29 12:03:11;;;;;;;2.43;2.23;;;30.70;1.00;;;;;;5055533;28;20470;-70
2022/06/29 12:05:37;;;;;;;4.90;1.90;;;30.30;1.00;;;;;;5055392;28;20906;-74
2022/06/29 12:08:02;;;;;;;6.93;1.70;;;29.80;1.00;;;;;;5054563;28;20441;-74
2022/06/29 12:10:28;;;;;;;2.67;1.53;;;29.30;1.00;;;;;;5053631;28;20209;-71
2022/06/29 12:12:54;;;;;;;4.40;2.00;;;29.00;1.00;;;;;;5055350;28;20163;-72
2022/06/29 12:15:19;;;;;;;1.90;1.57;;;28.90;1.00;;;;;;5055451;28;20175;-74
2022/06/29 12:17:45;;;;;;;1.80;1.70;;;28.90;1.00;;;;;;5054239;28;20186;-75
2022/06/29 12:20:11;;;;;;;1.70;1.60;;;28.60;1.00;;;;;;5055110;28;20191;-76
2022/06/29 12:22:37;;;;;;;1.53;1.43;;;29.10;1.00;;;;;;5054077;28;20175;-74
2022/06/29 12:25:03;;;;;;;1.50;1.37;;;29.80;1.00;;;;;;5055002;28;20790;-74
2022/06/29 12:27:29;;;;;;;2.17;1.80;;;30.40;1.00;;;;;;5053681;28;20717;-77
2022/06/29 12:29:55;;;;;;;2.10;1.90;;;31.40;1.00;;;;;;5054621;28;20453;-74
2022/06/29 12:32:21;;;;;;;2.00;1.80;;;31.50;1.00;;;;;;5054978;28;20281;-72
2022/06/29 12:34:46;;;;;;;3.00;1.30;;;31.80;1.00;;;;;;5054988;28;20171;-76
2022/06/29 12:37:13;;;;;;;2.50;1.40;;;31.90;1.00;;;;;;5054082;28;20408;-75
2022/06/29 12:39:38;;;;;;;2.00;1.80;;;32.00;1.00;;;;;;5054740;28;20524;-77
2022/06/29 12:42:04;;;;;;;2.17;1.60;;;31.20;1.00;;;;;;5054654;28;20408;-75
2022/06/29 12:44:30;;;;;;;3.57;2.20;;;30.80;1.00;;;;;;5054770;28;20616;-75
2022/06/29 12:46:56;;;;;;;2.27;1.63;;;30.60;1.00;;;;;;5053269;28;20484;-75
2022/06/29 12:49:22;;;;;;;1.80;1.70;;;30.20;1.00;;;;;;5054654;28;20717;-73
2022/06/29 12:51:48;;;;;;;1.97;1.70;;;30.00;1.00;;;;;;5054617;28;20583;-75
2022/06/29 12:54:14;;;;;;;2.53;1.97;;;29.60;1.00;;;;;;5054521;28;20756;-74
2022/06/29 12:56:40;;;;;;;3.43;1.87;;;29.40;1.00;;;;;;5053654;28;20502;-73
2022/06/29 12:59:06;;;;;;;1.90;1.80;;;29.30;1.00;;;;;;5054422;28;20210;-75
2022/06/29 13:01:31;;;;;;;3.50;1.90;;;29.10;1.00;;;;;;5054403;28;20182;-74
2022/06/29 13:03:57;;;;;;;2.80;1.80;;;29.30;1.00;;;;;;5053304;28;20203;-72
2022/06/29 13:06:22;;;;;;;1.63;1.40;;;29.20;1.00;;;;;;5052579;28;20171;-72
2022/06/29 13:08:48;;;;;;;1.77;1.67;;;29.20;1.00;;;;;;5053615;28;20190;-72
2022/06/29 13:11:14;;;;;;;3.97;1.67;;;29.40;1.00;;;;;;5054214;28;20249;-74